Terminal Aerodrome Forecast
Issued by NWS Shreveport, LA

Home | Current Version | Previous Version | Text Only | Print | Product List | Glossary On
Versions: 1 2 3 4 5 6 7 8 9 10 11 12
861
FTUS44 KSHV 261727
TAFSHV
TAF
KSHV 261727Z 2618/2718 15010KT P6SM SCT100 SCT250
     FM270500 15007KT 3SM TSRA BR BKN025CB
     FM271600 16006KT 5SM -RA BR VCTS BKN025CB=

USA.gov is the U.S. government's official web portal to all federal, state and local government web resources and services.